createdAt,value
2019-03-13T00:00:04.423Z,997.23
2019-03-13T00:01:04.417Z,997.13
2019-03-13T00:02:04.399Z,997.04
2019-03-13T00:03:04.389Z,997.06
2019-03-13T00:04:04.378Z,996.99
2019-03-13T00:05:04.365Z,997.00
2019-03-13T00:06:04.354Z,996.97
2019-03-13T00:07:04.368Z,996.97
2019-03-13T00:08:04.332Z,997.02
2019-03-13T00:09:04.319Z,996.92
2019-03-13T00:10:04.310Z,996.89
2019-03-13T00:11:04.307Z,996.83
2019-03-13T00:12:04.288Z,996.78
2019-03-13T00:13:04.304Z,996.80
2019-03-13T00:14:04.267Z,996.69
2019-03-13T00:15:04.252Z,996.74
2019-03-13T00:16:04.241Z,996.71
2019-03-13T00:17:04.234Z,996.67
2019-03-13T00:18:04.221Z,996.70
2019-03-13T00:19:04.236Z,996.66
2019-03-13T00:20:04.197Z,996.72
2019-03-13T00:21:04.186Z,996.64
2019-03-13T00:22:04.176Z,996.69
2019-03-13T00:23:04.164Z,996.67
2019-03-13T00:24:04.153Z,996.65
2019-03-13T00:25:04.167Z,996.62
2019-03-13T00:26:04.130Z,996.63
2019-03-13T00:27:04.120Z,996.63
2019-03-13T00:28:04.108Z,996.62
2019-03-13T00:29:04.098Z,996.59
2019-03-13T00:30:04.088Z,996.60
2019-03-13T00:31:04.080Z,996.62
2019-03-13T00:32:04.064Z,996.62
2019-03-13T00:33:04.052Z,996.57
2019-03-13T00:34:04.042Z,996.49
2019-03-13T00:35:04.032Z,996.43
2019-03-13T00:36:04.021Z,996.43
2019-03-13T00:37:04.042Z,996.33
2019-03-13T00:38:03.996Z,996.25
2019-03-13T00:39:03.985Z,996.28
2019-03-13T00:40:03.976Z,996.28
2019-03-13T00:41:03.965Z,996.28
2019-03-13T00:42:03.957Z,996.22
2019-03-13T00:43:04.255Z,996.16
2019-03-13T00:44:03.931Z,996.18
2019-03-13T00:45:03.923Z,996.11
2019-03-13T00:46:03.908Z,996.11
2019-03-13T00:47:03.904Z,996.06
2019-03-13T00:48:03.886Z,996.11
2019-03-13T00:49:03.905Z,996.15
2019-03-13T00:50:03.863Z,996.12
2019-03-13T00:51:03.855Z,996.06
2019-03-13T00:52:03.842Z,996.04
2019-03-13T00:53:03.830Z,996.09
2019-03-13T00:54:03.824Z,996.09
2019-03-13T00:55:04.420Z,996.08
2019-03-13T00:56:03.796Z,996.09
2019-03-13T00:57:03.791Z,996.04
2019-03-13T00:58:03.777Z,996.11
2019-03-13T00:59:03.766Z,996.09
2019-03-13T01:00:03.752Z,996.04
2019-03-13T01:01:03.767Z,996.03
2019-03-13T01:02:03.735Z,995.99
2019-03-13T01:03:03.718Z,995.96
2019-03-13T01:04:03.712Z,995.97
2019-03-13T01:05:03.696Z,996.01
2019-03-13T01:06:03.688Z,996.05
2019-03-13T01:07:03.682Z,996.02
2019-03-13T01:08:03.669Z,995.99
2019-03-13T01:09:03.657Z,995.98
2019-03-13T01:10:03.645Z,996.00
2019-03-13T01:11:03.631Z,995.97
2019-03-13T01:12:03.619Z,996.03
2019-03-13T01:13:03.632Z,995.96
2019-03-13T01:14:03.597Z,995.89
2019-03-13T01:15:03.584Z,995.94
2019-03-13T01:16:03.594Z,995.94
2019-03-13T01:17:03.567Z,995.83
2019-03-13T01:18:03.553Z,995.84
2019-03-13T01:19:03.559Z,995.88
2019-03-13T01:20:03.529Z,995.84
2019-03-13T01:21:03.520Z,995.86
2019-03-13T01:22:03.508Z,995.83
2019-03-13T01:23:03.500Z,995.81
2019-03-13T01:24:03.486Z,995.81
2019-03-13T01:25:03.509Z,995.82
2019-03-13T01:26:03.468Z,995.80
2019-03-13T01:27:03.453Z,995.90
2019-03-13T01:28:03.445Z,995.90
2019-03-13T01:29:03.432Z,995.95
2019-03-13T01:30:03.421Z,995.91
2019-03-13T01:31:03.732Z,995.95
2019-03-13T01:32:03.396Z,995.96
2019-03-13T01:33:03.386Z,996.01
2019-03-13T01:34:03.373Z,996.07
2019-03-13T01:35:03.366Z,996.05
2019-03-13T01:36:03.351Z,996.15
2019-03-13T01:37:03.370Z,996.21
2019-03-13T01:38:03.331Z,996.13
2019-03-13T01:39:03.318Z,996.16
2019-03-13T01:40:03.307Z,996.14
2019-03-13T01:41:03.297Z,996.23
2019-03-13T01:42:03.286Z,996.28
2019-03-13T01:43:03.287Z,996.20
2019-03-13T01:44:03.263Z,996.15
2019-03-13T01:45:03.255Z,996.16
2019-03-13T01:46:03.242Z,996.36
2019-03-13T01:47:03.229Z,996.20
2019-03-13T01:48:03.222Z,996.31
2019-03-13T01:49:03.228Z,996.28
2019-03-13T01:50:03.195Z,996.31
2019-03-13T01:51:03.185Z,996.21
2019-03-13T01:52:03.179Z,996.36
2019-03-13T01:53:03.165Z,996.33
2019-03-13T01:54:03.164Z,996.27
2019-03-13T01:55:03.180Z,996.27
2019-03-13T01:56:03.134Z,996.30
2019-03-13T01:57:03.117Z,996.24
2019-03-13T01:58:03.107Z,996.31
2019-03-13T01:59:03.095Z,996.30
2019-03-13T02:00:03.085Z,996.56
2019-03-13T02:01:03.102Z,996.37
2019-03-13T02:02:03.064Z,996.41
2019-03-13T02:03:03.065Z,996.36
2019-03-13T02:04:03.040Z,996.40
2019-03-13T02:05:03.029Z,996.43
2019-03-13T02:06:03.019Z,996.48
2019-03-13T02:07:03.344Z,996.45
2019-03-13T02:08:03.003Z,996.44
2019-03-13T02:09:02.991Z,996.47
2019-03-13T02:10:02.976Z,996.50
2019-03-13T02:11:02.962Z,996.47
2019-03-13T02:12:02.951Z,996.48
2019-03-13T02:13:02.951Z,996.44
2019-03-13T02:14:02.930Z,996.51
2019-03-13T02:15:02.927Z,996.52
2019-03-13T02:16:02.907Z,996.48
2019-03-13T02:17:02.897Z,996.42
2019-03-13T02:18:02.885Z,996.45
2019-03-13T02:19:02.906Z,996.49
2019-03-13T02:20:02.863Z,996.52
2019-03-13T02:21:02.855Z,996.54
2019-03-13T02:22:02.844Z,996.46
2019-03-13T02:23:02.830Z,996.49
2019-03-13T02:24:02.822Z,996.47
2019-03-13T02:25:02.815Z,996.42
2019-03-13T02:26:02.799Z,996.42
2019-03-13T02:27:02.786Z,996.47
2019-03-13T02:28:02.775Z,996.40
2019-03-13T02:29:02.763Z,996.43
2019-03-13T02:30:02.754Z,996.53
2019-03-13T02:31:02.775Z,996.40
2019-03-13T02:32:02.733Z,996.45
2019-03-13T02:33:02.727Z,996.43
2019-03-13T02:34:02.731Z,996.42
2019-03-13T02:35:02.696Z,996.39
2019-03-13T02:36:02.718Z,996.42
2019-03-13T02:37:02.780Z,996.45
2019-03-13T02:38:02.664Z,996.42
2019-03-13T02:39:02.652Z,996.43
2019-03-13T02:40:02.640Z,996.40
2019-03-13T02:41:02.633Z,996.37
2019-03-13T02:42:02.620Z,996.39
2019-03-13T02:43:02.645Z,996.45
2019-03-13T02:44:02.603Z,996.42
2019-03-13T02:45:02.585Z,996.38
2019-03-13T02:46:02.576Z,996.31
2019-03-13T02:47:02.567Z,996.27
2019-03-13T02:48:02.554Z,996.21
2019-03-13T02:49:02.572Z,996.24
2019-03-13T02:50:02.541Z,996.20
2019-03-13T02:51:02.518Z,996.20
2019-03-13T02:52:02.510Z,996.13
2019-03-13T02:53:02.520Z,996.17
2019-03-13T02:54:02.490Z,996.11
2019-03-13T02:55:02.540Z,996.11
2019-03-13T02:56:02.472Z,996.10
2019-03-13T02:57:02.459Z,996.08
2019-03-13T02:58:02.442Z,996.03
2019-03-13T02:59:02.433Z,996.07
2019-03-13T03:00:02.421Z,996.02
2019-03-13T03:01:02.421Z,995.99
2019-03-13T03:02:02.401Z,996.05
2019-03-13T03:03:02.385Z,996.05
2019-03-13T03:04:02.385Z,996.03
2019-03-13T03:05:02.384Z,996.03
2019-03-13T03:06:02.362Z,996.03
2019-03-13T03:07:02.363Z,996.04
2019-03-13T03:08:02.333Z,996.05
2019-03-13T03:09:02.321Z,996.03
2019-03-13T03:10:02.324Z,996.03
2019-03-13T03:11:02.447Z,996.02
2019-03-13T03:12:02.287Z,996.07
2019-03-13T03:13:02.655Z,996.12
2019-03-13T03:14:02.267Z,996.04
2019-03-13T03:15:02.257Z,996.08
2019-03-13T03:16:02.250Z,996.08
2019-03-13T03:17:02.420Z,996.14
2019-03-13T03:18:02.230Z,996.17
2019-03-13T03:19:02.258Z,996.21
2019-03-13T03:20:02.213Z,996.23
2019-03-13T03:21:02.188Z,996.21
2019-03-13T03:22:02.178Z,996.22
2019-03-13T03:23:02.168Z,996.28
2019-03-13T03:24:02.155Z,996.30
2019-03-13T03:25:02.162Z,996.33
2019-03-13T03:26:02.155Z,996.30
2019-03-13T03:27:02.124Z,996.31
2019-03-13T03:28:02.110Z,996.34
2019-03-13T03:29:02.104Z,996.34
2019-03-13T03:30:02.189Z,996.44
2019-03-13T03:31:02.101Z,996.50
2019-03-13T03:32:02.094Z,996.53
2019-03-13T03:33:02.067Z,996.52
2019-03-13T03:34:02.087Z,996.49
2019-03-13T03:35:02.080Z,996.54
2019-03-13T03:36:02.028Z,996.56
2019-03-13T03:37:02.023Z,996.61
2019-03-13T03:38:02.002Z,996.73
2019-03-13T03:39:01.989Z,996.75
2019-03-13T03:40:01.992Z,996.80
2019-03-13T03:41:01.968Z,996.83
2019-03-13T03:42:01.955Z,996.84
2019-03-13T03:43:01.979Z,996.86
2019-03-13T03:44:01.942Z,996.87
2019-03-13T03:45:01.927Z,996.96
2019-03-13T03:46:01.910Z,996.97
2019-03-13T03:47:01.899Z,997.01
2019-03-13T03:48:01.894Z,997.10
2019-03-13T03:49:01.907Z,997.01
2019-03-13T03:50:01.879Z,997.10
2019-03-13T03:51:01.896Z,997.15
2019-03-13T03:52:01.848Z,997.17
2019-03-13T03:53:01.831Z,997.22
2019-03-13T03:54:01.822Z,997.22
2019-03-13T03:55:02.134Z,997.29
2019-03-13T03:56:01.804Z,997.31
2019-03-13T03:57:01.788Z,997.32
2019-03-13T03:58:01.780Z,997.36
2019-03-13T03:59:01.769Z,997.41
2019-03-13T04:00:01.760Z,997.43
2019-03-13T04:01:01.866Z,997.41
2019-03-13T04:02:01.735Z,997.43
2019-03-13T04:03:01.739Z,997.49
2019-03-13T04:04:01.716Z,997.53
2019-03-13T04:05:01.702Z,997.59
2019-03-13T04:06:01.696Z,997.60
2019-03-13T04:07:01.712Z,997.60
2019-03-13T04:08:01.671Z,997.66
2019-03-13T04:09:01.670Z,997.62
2019-03-13T04:10:01.644Z,997.69
2019-03-13T04:11:01.636Z,997.69
2019-03-13T04:12:01.621Z,997.75
2019-03-13T04:13:01.650Z,997.80
2019-03-13T04:14:01.601Z,997.80
2019-03-13T04:15:01.708Z,997.81
2019-03-13T04:16:01.614Z,997.83
2019-03-13T04:17:01.566Z,997.84
2019-03-13T04:18:01.557Z,997.86
2019-03-13T04:19:01.585Z,997.89
2019-03-13T04:20:01.535Z,997.86
2019-03-13T04:21:01.522Z,997.94
2019-03-13T04:22:01.511Z,998.05
2019-03-13T04:23:01.552Z,998.00
2019-03-13T04:24:01.489Z,998.07
2019-03-13T04:25:01.804Z,998.10
2019-03-13T04:26:01.465Z,998.02
2019-03-13T04:27:01.463Z,998.05
2019-03-13T04:28:01.445Z,998.11
2019-03-13T04:29:01.444Z,998.22
2019-03-13T04:30:01.426Z,998.25
2019-03-13T04:31:01.420Z,998.30
2019-03-13T04:32:01.400Z,998.29
2019-03-13T04:33:01.396Z,998.30
2019-03-13T04:34:01.377Z,998.35
2019-03-13T04:35:01.368Z,998.36
2019-03-13T04:36:01.365Z,998.43
2019-03-13T04:37:01.354Z,998.39
2019-03-13T04:38:01.339Z,998.40
2019-03-13T04:39:01.324Z,998.44
2019-03-13T04:40:01.311Z,998.45
2019-03-13T04:41:01.301Z,998.45
2019-03-13T04:42:01.291Z,998.47
2019-03-13T04:43:01.309Z,998.45
2019-03-13T04:44:01.267Z,998.44
2019-03-13T04:45:01.255Z,998.48
2019-03-13T04:46:01.245Z,998.54
2019-03-13T04:47:01.238Z,998.52
2019-03-13T04:48:01.222Z,998.55
2019-03-13T04:49:01.221Z,998.61
2019-03-13T04:50:01.201Z,998.60
2019-03-13T04:51:01.191Z,998.62
2019-03-13T04:52:01.180Z,998.60
2019-03-13T04:53:01.167Z,998.64
2019-03-13T04:54:01.158Z,998.63
2019-03-13T04:55:01.188Z,998.72
2019-03-13T04:56:01.133Z,998.72
2019-03-13T04:57:01.122Z,998.73
2019-03-13T04:58:01.111Z,998.79
2019-03-13T04:59:01.100Z,998.80
2019-03-13T05:00:01.098Z,998.76
2019-03-13T05:01:01.100Z,998.78
2019-03-13T05:02:01.066Z,998.70
2019-03-13T05:03:01.056Z,998.75
2019-03-13T05:04:01.045Z,998.73
2019-03-13T05:05:01.039Z,998.75
2019-03-13T05:06:01.022Z,998.76
2019-03-13T05:07:01.337Z,998.78
2019-03-13T05:08:00.999Z,998.87
2019-03-13T05:09:00.989Z,998.96
2019-03-13T05:10:00.978Z,998.91
2019-03-13T05:11:00.970Z,999.03
2019-03-13T05:12:00.956Z,999.05
2019-03-13T05:13:01.000Z,999.00
2019-03-13T05:14:00.933Z,999.02
2019-03-13T05:15:00.926Z,999.05
2019-03-13T05:16:00.910Z,999.06
2019-03-13T05:17:00.898Z,999.11
2019-03-13T05:18:00.887Z,999.11
2019-03-13T05:19:00.897Z,999.12
2019-03-13T05:20:00.867Z,999.05
2019-03-13T05:21:00.858Z,999.08
2019-03-13T05:22:00.844Z,999.11
2019-03-13T05:24:40.947Z,999.18
2019-03-13T05:25:08.720Z,999.14
2019-03-13T05:26:08.721Z,999.18
2019-03-13T05:27:08.700Z,999.25
2019-03-13T05:28:08.689Z,999.21
2019-03-13T05:29:08.676Z,999.33
2019-03-13T05:30:08.693Z,999.21
2019-03-13T05:31:08.655Z,999.35
2019-03-13T05:32:08.642Z,999.28
2019-03-13T05:33:08.632Z,999.28
2019-03-13T05:34:23.288Z,999.55
2019-03-13T05:35:08.609Z,999.35
2019-03-13T05:36:08.623Z,999.42
2019-03-13T05:37:08.586Z,999.42
2019-03-13T05:38:08.582Z,999.49
2019-03-13T05:39:08.566Z,999.46
2019-03-13T05:40:08.554Z,999.41
2019-03-13T05:41:08.563Z,999.48
2019-03-13T05:42:08.863Z,999.52
2019-03-13T05:43:08.522Z,999.51
2019-03-13T05:44:08.512Z,999.57
2019-03-13T05:45:08.650Z,999.58
2019-03-13T05:46:08.495Z,999.56
2019-03-13T05:47:08.476Z,999.56
2019-03-13T05:48:08.488Z,999.59
2019-03-13T05:49:08.454Z,999.60
2019-03-13T05:50:08.447Z,999.56
2019-03-13T05:51:08.433Z,999.57
2019-03-13T05:52:08.421Z,999.67
2019-03-13T05:53:08.412Z,999.64
2019-03-13T05:54:08.421Z,999.65
2019-03-13T05:55:08.387Z,999.68
2019-03-13T05:56:08.377Z,999.74
2019-03-13T05:57:08.365Z,999.77
2019-03-13T05:58:08.357Z,999.73
2019-03-13T05:59:08.349Z,999.73
2019-03-13T06:00:08.361Z,999.74
2019-03-13T06:01:08.324Z,999.70
2019-03-13T06:02:08.313Z,999.67
2019-03-13T06:03:08.319Z,999.64
2019-03-13T06:04:08.290Z,999.60
2019-03-13T06:05:08.281Z,999.62
2019-03-13T06:06:08.300Z,999.64
2019-03-13T06:07:08.257Z,999.61
2019-03-13T06:08:08.245Z,999.67
2019-03-13T06:09:08.234Z,999.70
2019-03-13T06:10:08.226Z,999.68
2019-03-13T06:11:08.213Z,999.71
2019-03-13T06:12:08.220Z,999.78
2019-03-13T06:13:08.192Z,999.77
2019-03-13T06:14:08.180Z,999.80
2019-03-13T06:15:08.169Z,999.94
2019-03-13T06:16:08.158Z,999.84
2019-03-13T06:17:08.146Z,999.94
2019-03-13T06:18:09.777Z,999.88
2019-03-13T06:19:08.126Z,999.88
2019-03-13T06:20:10.621Z,999.84
2019-03-13T06:21:08.103Z,999.90
2019-03-13T06:22:08.090Z,999.86
2019-03-13T06:23:08.080Z,999.94
2019-03-13T06:24:08.381Z,999.96
2019-03-13T06:25:08.059Z,999.94
2019-03-13T06:26:08.046Z,999.94
2019-03-13T06:27:08.036Z,999.92
2019-03-13T06:28:08.024Z,999.99
2019-03-13T06:29:08.014Z,1000.01
2019-03-13T06:30:08.034Z,1000.02
2019-03-13T06:31:07.990Z,1000.04
2019-03-13T06:32:07.979Z,1000.07
2019-03-13T06:33:07.968Z,1000.03
2019-03-13T06:34:11.209Z,1000.05
2019-03-13T06:35:07.948Z,1000.08
2019-03-13T06:36:07.942Z,1000.09
2019-03-13T06:37:07.928Z,1000.29
2019-03-13T06:38:07.913Z,1000.13
2019-03-13T06:39:07.901Z,1000.15
2019-03-13T06:40:07.893Z,1000.19
2019-03-13T06:41:07.882Z,1000.16
2019-03-13T06:42:07.900Z,1000.18
2019-03-13T06:43:07.858Z,1000.20
2019-03-13T06:44:07.849Z,1000.20
2019-03-13T06:45:07.835Z,1000.24
2019-03-13T06:46:07.825Z,1000.22
2019-03-13T06:47:07.814Z,1000.16
2019-03-13T06:48:07.810Z,1000.21
2019-03-13T06:49:07.792Z,1000.24
2019-03-13T06:50:07.784Z,1000.21
2019-03-13T06:51:07.770Z,1000.23
2019-03-13T06:52:07.758Z,1000.27
2019-03-13T06:53:07.749Z,1000.30
2019-03-13T06:54:07.768Z,1000.29
2019-03-13T06:55:07.725Z,1000.29
2019-03-13T06:56:07.714Z,1000.33
2019-03-13T06:57:07.703Z,1000.36
2019-03-13T06:58:07.692Z,1000.37
2019-03-13T06:59:07.681Z,1000.36
2019-03-13T07:00:07.683Z,1000.34
2019-03-13T07:01:07.659Z,1000.40
2019-03-13T07:02:07.652Z,1000.59
2019-03-13T07:03:07.639Z,1000.39
2019-03-13T07:04:07.625Z,1000.44
2019-03-13T07:05:07.618Z,1000.37
2019-03-13T07:06:07.610Z,1000.45
2019-03-13T07:07:07.595Z,1000.39
2019-03-13T07:08:07.581Z,1000.42
2019-03-13T07:09:07.569Z,1000.43
2019-03-13T07:10:07.560Z,1000.41
2019-03-13T07:11:07.560Z,1000.45
2019-03-13T07:12:07.561Z,1000.41
2019-03-13T07:13:07.526Z,1000.42
2019-03-13T07:14:07.516Z,1000.38
2019-03-13T07:15:07.504Z,1000.39
2019-03-13T07:16:07.493Z,1000.36
2019-03-13T07:17:07.485Z,1000.46
2019-03-13T07:18:07.505Z,1000.42
2019-03-13T07:19:07.465Z,1000.39
2019-03-13T07:20:07.455Z,1000.37
2019-03-13T07:21:07.437Z,1000.43
2019-03-13T07:22:07.428Z,1000.48
2019-03-13T07:23:07.417Z,1000.43
2019-03-13T07:24:07.411Z,1000.56
2019-03-13T07:25:07.394Z,1000.45
2019-03-13T07:26:07.381Z,1000.45
2019-03-13T07:27:07.374Z,1000.41
2019-03-13T07:28:07.359Z,1000.42
2019-03-13T07:29:12.269Z,1000.47
2019-03-13T07:30:08.344Z,1000.45
2019-03-13T07:31:07.327Z,1000.49
2019-03-13T07:32:07.315Z,1000.50
2019-03-13T07:33:07.304Z,1000.54
2019-03-13T07:34:07.293Z,1000.49
2019-03-13T07:35:07.284Z,1000.49
2019-03-13T07:36:07.303Z,1000.45
2019-03-13T07:37:07.265Z,1000.45
2019-03-13T07:38:07.249Z,1000.44
2019-03-13T07:39:07.242Z,1000.48
2019-03-13T07:40:07.231Z,1000.47
2019-03-13T07:41:07.219Z,1000.50
2019-03-13T07:42:07.231Z,1000.48
2019-03-13T07:43:07.193Z,1000.55
2019-03-13T07:44:07.183Z,1000.53
2019-03-13T07:45:07.173Z,1000.49
2019-03-13T07:46:07.160Z,1000.48
2019-03-13T07:47:07.150Z,1000.49
2019-03-13T07:48:07.169Z,1000.56
2019-03-13T07:49:07.129Z,1000.44
2019-03-13T07:50:07.116Z,1000.54
2019-03-13T07:51:07.105Z,1000.46
2019-03-13T07:52:07.094Z,1000.52
2019-03-13T07:53:07.091Z,1000.60
2019-03-13T07:54:07.090Z,1000.46
2019-03-13T07:55:07.086Z,1000.69
2019-03-13T07:56:07.050Z,1000.45
2019-03-13T07:57:07.042Z,1000.43
2019-03-13T07:58:07.034Z,1000.45
2019-03-13T07:59:07.017Z,1000.41
2019-03-13T08:00:07.034Z,1000.43
2019-03-13T08:01:06.994Z,1000.50
2019-03-13T08:02:06.983Z,1000.43
2019-03-13T08:03:06.972Z,1000.38
2019-03-13T08:04:06.960Z,1000.42
2019-03-13T08:05:06.969Z,1000.43
2019-03-13T08:06:07.267Z,1000.39
2019-03-13T08:07:06.942Z,1000.42
2019-03-13T08:08:06.917Z,1000.35
2019-03-13T08:09:06.906Z,1000.33
2019-03-13T08:10:06.895Z,1000.31
2019-03-13T08:11:06.884Z,1000.37
2019-03-13T08:12:06.900Z,1000.33
2019-03-13T08:13:06.864Z,1000.35
2019-03-13T08:14:06.853Z,1000.32
2019-03-13T08:15:06.840Z,1000.35
2019-03-13T08:16:06.831Z,1000.37
2019-03-13T08:17:06.817Z,1000.40
2019-03-13T08:18:06.833Z,1000.35
2019-03-13T08:19:06.796Z,1000.32
2019-03-13T08:20:06.785Z,1000.40
2019-03-13T08:21:06.777Z,1000.35
2019-03-13T08:22:06.765Z,1000.32
2019-03-13T08:23:06.754Z,1000.38
2019-03-13T08:24:06.748Z,1000.33
2019-03-13T08:25:08.242Z,1000.43
2019-03-13T08:26:06.721Z,1000.36
2019-03-13T08:27:06.710Z,1000.43
2019-03-13T08:28:06.695Z,1000.41
2019-03-13T08:29:06.685Z,1000.45
2019-03-13T08:30:06.679Z,1000.43
2019-03-13T08:31:06.663Z,1000.42
2019-03-13T08:32:06.656Z,1000.38
2019-03-13T08:33:06.641Z,1000.36
2019-03-13T08:34:06.629Z,1000.43
2019-03-13T08:35:06.617Z,1000.50
2019-03-13T08:36:06.629Z,1000.38
2019-03-13T08:37:06.597Z,1000.60
2019-03-13T08:38:06.584Z,1000.37
2019-03-13T08:39:06.574Z,1000.39
2019-03-13T08:40:06.573Z,1000.36
2019-03-13T08:41:06.552Z,1000.40
2019-03-13T08:42:06.867Z,1000.36
2019-03-13T08:43:06.530Z,1000.34
2019-03-13T08:44:06.523Z,1000.36
2019-03-13T08:45:06.509Z,1000.35
2019-03-13T08:46:06.497Z,1000.26
2019-03-13T08:47:06.486Z,1000.34
2019-03-13T08:48:06.500Z,1000.29
2019-03-13T08:49:06.464Z,1000.20
2019-03-13T08:50:06.452Z,1000.35
2019-03-13T08:51:06.444Z,1000.22
2019-03-13T08:52:06.431Z,1000.27
2019-03-13T08:53:06.420Z,1000.27
2019-03-13T08:54:06.750Z,1000.28
2019-03-13T08:55:06.440Z,1000.17
2019-03-13T08:56:06.388Z,1000.27
2019-03-13T08:57:06.378Z,1000.06
2019-03-13T08:58:06.365Z,1000.12
2019-03-13T08:59:06.355Z,1000.11
2019-03-13T09:00:06.377Z,1000.23
2019-03-13T09:01:06.331Z,1000.37
2019-03-13T09:02:06.325Z,1000.20
2019-03-13T09:03:06.309Z,1000.19
2019-03-13T09:04:06.301Z,1000.26
2019-03-13T09:05:06.288Z,1000.18
2019-03-13T09:06:06.310Z,1000.18
2019-03-13T09:07:06.269Z,1000.16
2019-03-13T09:08:06.253Z,1000.19
2019-03-13T09:09:06.242Z,1000.18
2019-03-13T09:10:06.235Z,1000.15
2019-03-13T09:11:06.220Z,1000.13
2019-03-13T09:12:06.234Z,1000.06
2019-03-13T09:13:06.197Z,1000.20
2019-03-13T09:14:06.186Z,1000.06
2019-03-13T09:15:06.175Z,1000.08
2019-03-13T09:16:06.165Z,1000.02
2019-03-13T09:17:06.152Z,1000.05
2019-03-13T09:18:06.175Z,1000.11
2019-03-13T09:19:06.136Z,1000.01
2019-03-13T09:20:06.122Z,1000.06
2019-03-13T09:21:06.110Z,1000.17
2019-03-13T09:22:06.099Z,1000.09
2019-03-13T09:23:06.086Z,1000.04
2019-03-13T09:24:06.101Z,1000.08
2019-03-13T09:25:11.978Z,1000.01
2019-03-13T09:26:07.057Z,1000.04
2019-03-13T09:27:06.043Z,999.92
2019-03-13T09:28:06.031Z,999.97
2019-03-13T09:29:06.022Z,999.92
2019-03-13T09:30:06.030Z,999.93
2019-03-13T09:31:06.023Z,999.99
2019-03-13T09:32:05.989Z,999.91
2019-03-13T09:33:05.976Z,999.96
2019-03-13T09:34:05.967Z,999.89
2019-03-13T09:35:05.963Z,999.88
2019-03-13T09:36:05.952Z,999.84
2019-03-13T09:37:05.932Z,999.80
2019-03-13T09:38:05.924Z,999.88
2019-03-13T09:39:05.910Z,999.70
2019-03-13T09:40:05.901Z,999.78
2019-03-13T09:41:05.891Z,999.80
2019-03-13T09:42:05.895Z,999.77
2019-03-13T09:43:05.866Z,999.80
2019-03-13T09:44:05.856Z,999.77
2019-03-13T09:45:05.846Z,999.83
2019-03-13T09:46:05.836Z,999.81
2019-03-13T09:47:05.821Z,999.82
2019-03-13T09:48:07.396Z,999.83
2019-03-13T09:49:05.803Z,999.79
2019-03-13T09:50:05.788Z,1000.04
2019-03-13T09:51:05.778Z,999.85
2019-03-13T09:52:05.767Z,999.82
2019-03-13T09:53:05.755Z,999.81
2019-03-13T09:54:05.778Z,999.81
2019-03-13T09:55:05.735Z,999.83
2019-03-13T09:56:05.725Z,999.81
2019-03-13T09:57:05.711Z,999.82
2019-03-13T09:58:05.699Z,999.86
2019-03-13T09:59:05.688Z,999.89
2019-03-13T10:00:05.699Z,999.86
2019-03-13T10:01:06.359Z,999.80
2019-03-13T10:02:05.655Z,999.82
2019-03-13T10:03:05.645Z,999.88
2019-03-13T10:04:05.705Z,999.77
2019-03-13T10:05:05.625Z,999.79
2019-03-13T10:06:05.690Z,1000.21
2019-03-13T10:07:05.601Z,999.76
2019-03-13T10:08:05.594Z,999.62
2019-03-13T10:09:05.578Z,999.69
2019-03-13T10:10:05.568Z,999.74
2019-03-13T10:11:05.557Z,999.72
2019-03-13T10:12:05.566Z,999.68
2019-03-13T10:13:05.534Z,999.65
2019-03-13T10:14:05.526Z,999.67
2019-03-13T10:15:05.512Z,999.85
2019-03-13T10:16:05.502Z,999.71
2019-03-13T10:17:10.879Z,999.82
2019-03-13T10:18:06.525Z,999.72
2019-03-13T10:19:05.469Z,999.63
2019-03-13T10:20:05.463Z,999.67
2019-03-13T10:21:05.446Z,999.64
2019-03-13T10:22:05.508Z,999.54
2019-03-13T10:23:05.424Z,999.54
2019-03-13T10:24:05.442Z,999.47
2019-03-13T10:25:05.405Z,999.36
2019-03-13T10:26:05.392Z,999.33
2019-03-13T10:27:05.381Z,999.70
2019-03-13T10:28:05.369Z,999.48
2019-03-13T10:29:05.360Z,999.46
2019-03-13T10:30:05.370Z,999.42
2019-03-13T10:31:05.341Z,999.38
2019-03-13T10:32:05.329Z,999.37
2019-03-13T10:33:05.314Z,999.49
2019-03-13T10:34:05.302Z,999.41
2019-03-13T10:35:05.301Z,999.37
2019-03-13T10:36:05.315Z,999.32
2019-03-13T10:37:05.268Z,999.32
2019-03-13T10:38:13.820Z,999.33
2019-03-13T10:39:06.245Z,999.44
2019-03-13T10:40:05.235Z,999.25
2019-03-13T10:41:05.224Z,999.37
2019-03-13T10:42:05.520Z,999.42
2019-03-13T10:43:05.204Z,999.39
2019-03-13T10:44:05.194Z,999.44
2019-03-13T10:45:05.183Z,999.29
2019-03-13T10:46:05.169Z,999.13
2019-03-13T10:47:05.160Z,999.25
2019-03-13T10:48:05.161Z,999.20
2019-03-13T10:49:05.141Z,999.20
2019-03-13T10:50:05.126Z,999.14
2019-03-13T10:51:05.114Z,999.15
2019-03-13T10:52:05.103Z,999.08
2019-03-13T10:53:05.095Z,999.11
2019-03-13T10:54:05.090Z,999.11
2019-03-13T10:55:05.071Z,999.08
2019-03-13T10:56:05.058Z,999.06
2019-03-13T10:57:05.058Z,999.17
2019-03-13T10:58:05.037Z,999.10
2019-03-13T10:59:05.028Z,999.04
2019-03-13T11:00:05.049Z,999.01
2019-03-13T11:01:05.003Z,999.04
2019-03-13T11:02:04.995Z,999.00
2019-03-13T11:03:04.983Z,999.05
2019-03-13T11:04:04.970Z,999.14
2019-03-13T11:05:05.042Z,999.47
2019-03-13T11:06:04.955Z,999.16
2019-03-13T11:07:04.937Z,999.19
2019-03-13T11:08:04.927Z,999.17
2019-03-13T11:09:04.916Z,999.17
2019-03-13T11:10:04.903Z,999.23
2019-03-13T11:11:04.893Z,999.16
2019-03-13T11:12:05.211Z,999.17
2019-03-13T11:13:04.871Z,999.17
2019-03-13T11:14:14.744Z,999.14
2019-03-13T11:15:05.850Z,999.13
2019-03-13T11:16:04.838Z,999.08
2019-03-13T11:17:04.826Z,999.07
2019-03-13T11:18:05.143Z,999.23
2019-03-13T11:19:04.808Z,999.16
2019-03-13T11:20:04.861Z,999.02
2019-03-13T11:21:04.784Z,999.00
2019-03-13T11:22:04.775Z,999.13
2019-03-13T11:23:04.766Z,999.05
2019-03-13T11:24:05.078Z,999.05
2019-03-13T11:25:04.828Z,999.05
2019-03-13T11:26:04.731Z,998.93
2019-03-13T11:27:04.724Z,999.03
2019-03-13T11:28:04.706Z,998.98
2019-03-13T11:29:04.698Z,999.03
2019-03-13T11:30:05.026Z,999.06
2019-03-13T11:31:04.680Z,999.01
2019-03-13T11:32:04.664Z,999.03
2019-03-13T11:33:04.658Z,999.11
2019-03-13T11:34:04.645Z,999.09
2019-03-13T11:35:04.631Z,999.10
2019-03-13T11:36:04.949Z,999.02
2019-03-13T11:37:04.609Z,998.95
2019-03-13T11:38:04.600Z,998.97
2019-03-13T11:39:04.587Z,999.03
2019-03-13T11:40:04.588Z,999.15
2019-03-13T11:41:04.566Z,998.90
2019-03-13T11:42:04.600Z,999.00
2019-03-13T11:43:04.541Z,998.98
2019-03-13T11:44:04.534Z,998.91
2019-03-13T11:45:04.548Z,999.04
2019-03-13T11:46:04.510Z,998.95
2019-03-13T11:47:04.498Z,998.94
2019-03-13T11:48:04.514Z,998.95
2019-03-13T11:49:04.493Z,998.97
2019-03-13T11:50:04.467Z,998.95
2019-03-13T11:51:04.462Z,998.91
2019-03-13T11:52:04.446Z,998.87
2019-03-13T11:53:04.434Z,998.93
2019-03-13T11:54:04.747Z,999.12
2019-03-13T11:55:04.440Z,998.98
2019-03-13T11:56:04.409Z,998.96
2019-03-13T11:57:04.390Z,998.92
2019-03-13T11:58:04.378Z,998.89
2019-03-13T11:59:04.367Z,998.85
2019-03-13T12:00:04.377Z,998.91
2019-03-13T12:01:04.350Z,998.88
2019-03-13T12:02:04.339Z,998.93
2019-03-13T12:03:04.326Z,998.97
2019-03-13T12:04:04.314Z,998.97
2019-03-13T12:05:04.301Z,998.97
2019-03-13T12:06:05.928Z,998.91
2019-03-13T12:07:04.278Z,998.94
2019-03-13T12:08:04.268Z,998.94
2019-03-13T12:09:04.257Z,998.92
2019-03-13T12:10:04.247Z,998.85
2019-03-13T12:11:04.239Z,998.92
2019-03-13T12:12:04.242Z,999.20
2019-03-13T12:13:04.219Z,998.94
2019-03-13T12:14:04.214Z,999.01
2019-03-13T12:15:04.190Z,998.91
2019-03-13T12:16:04.179Z,998.86
2019-03-13T12:17:04.168Z,998.89
2019-03-13T12:18:04.190Z,998.89
2019-03-13T12:19:04.149Z,999.18
2019-03-13T12:20:04.138Z,998.83
2019-03-13T12:21:04.124Z,998.84
2019-03-13T12:22:04.113Z,998.83
2019-03-13T12:23:04.103Z,998.87